createdAt,value
2019-05-23T00:00:08.480Z,94.17
2019-05-23T00:01:08.472Z,94.37
2019-05-23T00:02:08.467Z,94.48
2019-05-23T00:03:08.476Z,94.58
2019-05-23T00:04:08.504Z,94.48
2019-05-23T00:05:08.417Z,94.48
2019-05-23T00:06:08.409Z,94.37
2019-05-23T00:07:08.398Z,94.48
2019-05-23T00:08:08.385Z,94.48
2019-05-23T00:09:08.425Z,94.37
2019-05-23T00:10:08.365Z,94.06
2019-05-23T00:11:08.364Z,93.50
2019-05-23T00:12:08.345Z,93.71
2019-05-23T00:13:08.331Z,93.71
2019-05-23T00:14:08.321Z,93.81
2019-05-23T00:15:08.372Z,93.96
2019-05-23T00:16:08.293Z,93.96
2019-05-23T00:17:08.287Z,94.06
2019-05-23T00:18:08.285Z,94.06
2019-05-23T00:19:08.264Z,94.06
2019-05-23T00:20:08.330Z,94.06
2019-05-23T00:21:08.294Z,94.27
2019-05-23T00:22:08.286Z,94.37
2019-05-23T00:23:08.251Z,94.37
2019-05-23T00:24:08.309Z,94.27
2019-05-23T00:25:08.217Z,94.27
2019-05-23T00:26:08.190Z,94.17
2019-05-23T00:27:08.179Z,94.17
2019-05-23T00:28:08.179Z,94.17
2019-05-23T00:29:10.476Z,94.06
2019-05-23T00:30:08.189Z,93.75
2019-05-23T00:31:08.140Z,93.96
2019-05-23T00:32:08.137Z,94.06
2019-05-23T00:33:08.117Z,94.06
2019-05-23T00:34:08.097Z,94.06
2019-05-23T00:35:08.116Z,94.17
2019-05-23T00:36:08.120Z,94.06
2019-05-23T00:37:08.076Z,94.17
2019-05-23T00:38:08.061Z,94.21
2019-05-23T00:39:08.045Z,94.21
2019-05-23T00:40:08.035Z,94.21
2019-05-23T00:41:08.027Z,94.21
2019-05-23T00:42:08.055Z,93.90
2019-05-23T00:43:08.004Z,94.01
2019-05-23T00:44:08.040Z,94.01
2019-05-23T00:45:08.030Z,93.18
2019-05-23T00:46:07.976Z,93.70
2019-05-23T00:47:07.967Z,94.53
2019-05-23T00:48:08.005Z,94.73
2019-05-23T00:49:07.973Z,94.84
2019-05-23T00:50:07.941Z,94.94
2019-05-23T00:51:07.922Z,94.05
2019-05-23T00:52:07.920Z,92.59
2019-05-23T00:53:07.902Z,93.53
2019-05-23T00:54:07.947Z,93.63
2019-05-23T00:55:07.871Z,93.53
2019-05-23T00:56:07.861Z,93.95
2019-05-23T00:57:07.852Z,94.15
2019-05-23T00:58:07.990Z,94.15
2019-05-23T00:59:07.831Z,93.84
2019-05-23T01:00:07.858Z,93.84
2019-05-23T01:01:07.810Z,93.88
2019-05-23T01:02:07.807Z,94.78
2019-05-23T01:03:07.789Z,95.09
2019-05-23T01:04:07.778Z,95.19
2019-05-23T01:05:07.808Z,95.29
2019-05-23T01:06:07.760Z,95.29
2019-05-23T01:07:07.752Z,95.40
2019-05-23T01:08:07.738Z,95.50
2019-05-23T01:09:07.729Z,95.40
2019-05-23T01:10:07.726Z,95.19
2019-05-23T01:11:07.738Z,95.09
2019-05-23T01:12:07.695Z,95.09
2019-05-23T01:13:07.686Z,94.15
2019-05-23T01:14:07.685Z,94.05
2019-05-23T01:15:07.665Z,94.36
2019-05-23T01:16:07.647Z,94.57
2019-05-23T01:17:07.665Z,94.67
2019-05-23T01:18:07.627Z,94.67
2019-05-23T01:19:07.625Z,94.88
2019-05-23T01:20:07.609Z,94.57
2019-05-23T01:21:07.595Z,92.55
2019-05-23T01:22:07.633Z,92.35
2019-05-23T01:23:07.572Z,92.90
2019-05-23T01:24:07.596Z,93.22
2019-05-23T01:25:07.611Z,93.12
2019-05-23T01:26:07.542Z,93.12
2019-05-23T01:27:07.554Z,93.53
2019-05-23T01:28:07.524Z,93.84
2019-05-23T01:29:07.501Z,94.26
2019-05-23T01:30:07.501Z,94.20
2019-05-23T01:31:07.530Z,93.88
2019-05-23T01:32:07.481Z,93.88
2019-05-23T01:33:07.482Z,94.40
2019-05-23T01:34:07.451Z,94.82
2019-05-23T01:35:07.439Z,95.03
2019-05-23T01:36:07.440Z,95.07
2019-05-23T01:37:07.470Z,94.82
2019-05-23T01:38:07.409Z,94.82
2019-05-23T01:39:07.401Z,93.88
2019-05-23T01:40:07.429Z,92.74
2019-05-23T01:41:07.377Z,92.74
2019-05-23T01:42:07.379Z,92.38
2019-05-23T01:43:07.361Z,92.94
2019-05-23T01:44:07.357Z,93.16
2019-05-23T01:45:07.380Z,93.16
2019-05-23T01:46:07.370Z,93.16
2019-05-23T01:47:07.326Z,93.16
2019-05-23T01:48:07.304Z,93.47
2019-05-23T01:49:07.295Z,93.68
2019-05-23T01:50:07.287Z,93.47
2019-05-23T01:51:07.285Z,92.84
2019-05-23T01:52:07.298Z,92.22
2019-05-23T01:53:07.244Z,92.22
2019-05-23T01:54:07.238Z,92.63
2019-05-23T01:55:07.229Z,91.70
2019-05-23T01:56:07.213Z,91.66
2019-05-23T01:57:07.212Z,92.01
2019-05-23T01:58:07.222Z,92.01
2019-05-23T01:59:07.182Z,92.01
2019-05-23T02:00:10.656Z,92.01
2019-05-23T02:01:07.161Z,92.43
2019-05-23T02:02:07.156Z,92.63
2019-05-23T02:03:07.142Z,92.84
2019-05-23T02:04:07.163Z,92.94
2019-05-23T02:05:07.141Z,93.16
2019-05-23T02:06:07.142Z,93.26
2019-05-23T02:07:07.111Z,93.16
2019-05-23T02:08:07.137Z,93.10
2019-05-23T02:09:07.080Z,93.20
2019-05-23T02:10:07.071Z,93.10
2019-05-23T02:11:07.060Z,92.99
2019-05-23T02:12:07.038Z,92.99
2019-05-23T02:13:07.037Z,92.78
2019-05-23T02:14:07.068Z,92.88
2019-05-23T02:15:07.009Z,93.10
2019-05-23T02:16:06.998Z,93.20
2019-05-23T02:17:06.991Z,93.30
2019-05-23T02:18:06.979Z,93.20
2019-05-23T02:19:06.969Z,93.30
2019-05-23T02:20:07.019Z,93.41
2019-05-23T02:21:06.946Z,93.41
2019-05-23T02:22:06.944Z,93.10
2019-05-23T02:23:06.928Z,92.78
2019-05-23T02:24:06.919Z,92.88
2019-05-23T02:25:06.936Z,92.88
2019-05-23T02:26:06.901Z,92.88
2019-05-23T02:27:06.885Z,92.99
2019-05-23T02:28:06.895Z,92.99
2019-05-23T02:29:06.922Z,92.99
2019-05-23T02:30:06.955Z,92.99
2019-05-23T02:31:06.855Z,93.10
2019-05-23T02:32:06.824Z,93.20
2019-05-23T02:33:06.815Z,93.41
2019-05-23T02:34:06.814Z,93.41
2019-05-23T02:35:06.834Z,93.30
2019-05-23T02:36:06.801Z,93.41
2019-05-23T02:37:06.773Z,93.30
2019-05-23T02:38:06.760Z,93.30
2019-05-23T02:39:06.792Z,93.41
2019-05-23T02:40:06.765Z,93.51
2019-05-23T02:41:06.729Z,93.62
2019-05-23T02:42:06.722Z,93.62
2019-05-23T02:43:06.701Z,93.62
2019-05-23T02:44:06.699Z,93.72
2019-05-23T02:45:06.751Z,93.47
2019-05-23T02:46:06.679Z,93.47
2019-05-23T02:47:06.669Z,93.37
2019-05-23T02:48:06.658Z,91.86
2019-05-23T02:49:06.646Z,92.63
2019-05-23T02:50:06.644Z,93.05
2019-05-23T02:51:06.658Z,93.05
2019-05-23T02:52:06.606Z,93.05
2019-05-23T02:53:06.601Z,93.05
2019-05-23T02:54:06.587Z,93.37
2019-05-23T02:55:06.618Z,93.47
2019-05-23T02:56:06.575Z,93.68
2019-05-23T02:57:06.558Z,93.88
2019-05-23T02:58:06.581Z,93.88
2019-05-23T02:59:06.575Z,93.78
2019-05-23T03:00:06.528Z,93.88
2019-05-23T03:01:06.563Z,93.99
2019-05-23T03:02:06.517Z,93.68
2019-05-23T03:03:06.499Z,93.37
2019-05-23T03:04:06.556Z,93.68
2019-05-23T03:05:06.474Z,93.88
2019-05-23T03:06:06.466Z,94.09
2019-05-23T03:07:06.448Z,94.34
2019-05-23T03:08:06.443Z,94.34
2019-05-23T03:09:06.471Z,94.45
2019-05-23T03:10:06.424Z,94.45
2019-05-23T03:11:06.409Z,94.45
2019-05-23T03:12:06.432Z,94.45
2019-05-23T03:13:06.390Z,94.45
2019-05-23T03:14:06.387Z,94.45
2019-05-23T03:15:06.362Z,94.55
2019-05-23T03:16:06.351Z,94.55
2019-05-23T03:17:06.339Z,94.65
2019-05-23T03:18:06.381Z,94.65
2019-05-23T03:19:06.321Z,94.65
2019-05-23T03:20:06.307Z,94.55
2019-05-23T03:21:06.307Z,94.65
2019-05-23T03:22:06.290Z,94.76
2019-05-23T03:23:06.307Z,94.86
2019-05-23T03:24:06.306Z,94.76
2019-05-23T03:25:06.288Z,94.65
2019-05-23T03:26:06.287Z,94.65
2019-05-23T03:27:06.237Z,94.76
2019-05-23T03:28:06.218Z,94.96
2019-05-23T03:29:06.218Z,94.96
2019-05-23T03:30:06.248Z,95.07
2019-05-23T03:31:27.088Z,95.07
2019-05-23T03:32:07.209Z,94.86
2019-05-23T03:33:06.215Z,94.65
2019-05-23T03:34:06.156Z,93.20
2019-05-23T03:35:06.203Z,92.84
2019-05-23T03:36:06.144Z,93.72
2019-05-23T03:37:06.136Z,94.03
2019-05-23T03:38:06.120Z,94.24
2019-05-23T03:39:06.106Z,94.45
2019-05-23T03:40:06.105Z,94.55
2019-05-23T03:41:06.125Z,94.65
2019-05-23T03:42:06.074Z,94.76
2019-05-23T03:43:06.054Z,94.86
2019-05-23T03:44:06.108Z,94.96
2019-05-23T03:45:06.039Z,94.96
2019-05-23T03:46:06.034Z,94.96
2019-05-23T03:47:06.013Z,95.07
2019-05-23T03:48:06.008Z,94.86
2019-05-23T03:49:05.999Z,94.76
2019-05-23T03:50:06.032Z,94.65
2019-05-23T03:51:06.055Z,94.65
2019-05-23T03:52:05.960Z,94.55
2019-05-23T03:53:05.959Z,94.55
2019-05-23T03:54:05.958Z,94.55
2019-05-23T03:55:05.929Z,94.45
2019-05-23T03:56:05.958Z,94.34
2019-05-23T03:57:05.917Z,94.34
2019-05-23T03:58:05.910Z,94.45
2019-05-23T03:59:05.936Z,94.38
2019-05-23T04:00:07.021Z,93.87
2019-05-23T04:01:05.945Z,93.55
2019-05-23T04:02:05.941Z,92.82
2019-05-23T04:03:05.854Z,91.99
2019-05-23T04:04:05.870Z,92.14
2019-05-23T04:05:05.869Z,92.35
2019-05-23T04:06:05.836Z,92.66
2019-05-23T04:07:05.892Z,93.07
2019-05-23T04:08:05.814Z,93.07
2019-05-23T04:09:05.820Z,93.97
2019-05-23T04:10:05.825Z,93.66
2019-05-23T04:11:05.808Z,92.61
2019-05-23T04:12:05.752Z,90.91
2019-05-23T04:13:05.773Z,92.47
2019-05-23T04:14:05.726Z,90.81
2019-05-23T04:15:05.764Z,89.67
2019-05-23T04:16:09.556Z,89.98
2019-05-23T04:17:05.813Z,91.22
2019-05-23T04:18:05.694Z,91.74
2019-05-23T04:19:05.673Z,92.05
2019-05-23T04:20:05.823Z,92.36
2019-05-23T04:21:05.664Z,92.78
2019-05-23T04:22:05.663Z,92.78
2019-05-23T04:23:05.662Z,92.88
2019-05-23T04:24:05.622Z,93.10
2019-05-23T04:25:05.612Z,92.99
2019-05-23T04:26:05.633Z,92.26
2019-05-23T04:27:05.629Z,92.05
2019-05-23T04:28:05.583Z,91.43
2019-05-23T04:29:05.584Z,91.22
2019-05-23T04:30:05.559Z,91.12
2019-05-23T04:31:05.623Z,91.74
2019-05-23T04:32:08.566Z,91.53
2019-05-23T04:33:05.547Z,91.95
2019-05-23T04:34:05.576Z,91.39
2019-05-23T04:35:05.544Z,90.20
2019-05-23T04:36:05.487Z,87.26
2019-05-23T04:37:05.523Z,85.52
2019-05-23T04:38:05.575Z,85.13
2019-05-23T04:39:05.455Z,83.64
2019-05-23T04:40:05.444Z,83.19
2019-05-23T04:41:05.596Z,84.08
2019-05-23T04:42:05.447Z,82.70
2019-05-23T04:43:05.414Z,80.94
2019-05-23T04:44:05.418Z,82.60
2019-05-23T04:45:05.403Z,81.15
2019-05-23T04:46:05.391Z,81.32
2019-05-23T04:47:05.424Z,80.18
2019-05-23T04:48:05.373Z,79.25
2019-05-23T04:49:05.365Z,78.80
2019-05-23T04:50:05.341Z,77.25
2019-05-23T04:51:05.332Z,77.22
2019-05-23T04:52:05.312Z,77.56
2019-05-23T04:53:05.347Z,76.73
2019-05-23T04:54:05.294Z,76.70
2019-05-23T04:55:05.303Z,76.56
2019-05-23T04:56:05.270Z,76.77
2019-05-23T04:57:05.272Z,76.05
2019-05-23T04:58:05.343Z,76.53
2019-05-23T04:59:05.283Z,74.84
2019-05-23T05:00:05.230Z,75.22
2019-05-23T05:01:05.541Z,75.70
2019-05-23T05:02:05.210Z,75.95
2019-05-23T05:03:05.222Z,74.77
2019-05-23T05:04:05.229Z,76.29
2019-05-23T05:05:05.177Z,73.71
2019-05-23T05:06:05.168Z,73.57
2019-05-23T05:07:05.157Z,70.20
2019-05-23T05:08:05.413Z,70.51
2019-05-23T05:09:05.142Z,71.41
2019-05-23T05:10:05.157Z,70.07
2019-05-23T05:11:05.117Z,71.92
2019-05-23T05:12:05.119Z,69.73
2019-05-23T05:13:05.097Z,68.98
2019-05-23T05:14:05.085Z,68.87
2019-05-23T05:15:05.104Z,67.81
2019-05-23T05:16:05.057Z,69.18
2019-05-23T05:17:05.044Z,68.37
2019-05-23T05:18:05.035Z,68.74
2019-05-23T05:19:05.025Z,66.66
2019-05-23T05:20:05.030Z,65.77
2019-05-23T05:21:05.044Z,66.48
2019-05-23T05:22:05.001Z,66.61
2019-05-23T05:23:04.987Z,69.29
2019-05-23T05:24:04.963Z,69.18
2019-05-23T05:25:04.963Z,70.21
2019-05-23T05:26:04.954Z,69.39
2019-05-23T05:27:04.974Z,69.60
2019-05-23T05:28:04.967Z,68.46
2019-05-23T05:29:04.939Z,71.14
2019-05-23T05:30:04.902Z,70.62
2019-05-23T05:31:04.962Z,70.11
2019-05-23T05:32:04.928Z,71.55
2019-05-23T05:33:04.872Z,72.09
2019-05-23T05:34:04.870Z,73.02
2019-05-23T05:35:04.921Z,72.51
2019-05-23T05:36:04.858Z,74.67
2019-05-23T05:37:04.830Z,73.50
2019-05-23T05:38:04.846Z,72.38
2019-05-23T05:39:04.813Z,71.45
2019-05-23T05:40:04.809Z,72.06
2019-05-23T05:41:04.834Z,70.32
2019-05-23T05:42:04.779Z,70.79
2019-05-23T05:43:04.783Z,71.28
2019-05-23T05:44:04.757Z,69.18
2019-05-23T05:45:04.802Z,71.55
2019-05-23T05:46:04.738Z,71.75
2019-05-23T05:47:04.741Z,70.76
2019-05-23T05:48:04.717Z,72.58
2019-05-23T05:49:04.713Z,72.06
2019-05-23T05:50:04.700Z,70.62
2019-05-23T05:51:04.780Z,71.24
2019-05-23T05:52:04.675Z,70.52
2019-05-23T05:53:04.704Z,69.73
2019-05-23T05:54:04.688Z,69.18
2019-05-23T05:55:04.660Z,68.60
2019-05-23T05:56:04.745Z,69.12
2019-05-23T05:57:04.665Z,69.29
2019-05-23T05:58:04.654Z,67.68
2019-05-23T05:59:04.673Z,69.09
2019-05-23T06:00:04.616Z,66.34
2019-05-23T06:01:04.838Z,68.05
2019-05-23T06:02:04.617Z,67.44
2019-05-23T06:03:05.837Z,65.48
2019-05-23T06:04:04.601Z,65.08
2019-05-23T06:05:04.542Z,63.94
2019-05-23T06:06:04.787Z,65.05
2019-05-23T06:07:04.528Z,65.63
2019-05-23T06:08:04.516Z,67.55
2019-05-23T06:09:04.506Z,64.88
2019-05-23T06:10:04.534Z,66.73
2019-05-23T06:11:04.482Z,65.39
2019-05-23T06:12:04.477Z,66.22
2019-05-23T06:13:04.463Z,64.98
2019-05-23T06:14:04.452Z,64.78
2019-05-23T06:15:04.491Z,65.60
2019-05-23T06:16:04.476Z,68.30
2019-05-23T06:17:04.435Z,65.53
2019-05-23T06:18:04.519Z,66.76
2019-05-23T06:19:04.389Z,67.44
2019-05-23T06:20:04.380Z,63.98
2019-05-23T06:21:04.372Z,67.55
2019-05-23T06:22:04.360Z,65.77
2019-05-23T06:23:04.410Z,67.52
2019-05-23T06:24:04.341Z,65.88
2019-05-23T06:25:04.579Z,64.37
2019-05-23T06:26:04.331Z,66.28
2019-05-23T06:27:04.304Z,65.47
2019-05-23T06:28:04.292Z,64.54
2019-05-23T06:29:04.319Z,66.49
2019-05-23T06:30:04.308Z,65.03
2019-05-23T06:31:04.257Z,64.20
2019-05-23T06:32:04.249Z,67.35
2019-05-23T06:33:19.969Z,64.72
2019-05-23T06:34:05.285Z,64.92
2019-05-23T06:35:04.241Z,68.82
2019-05-23T06:36:04.214Z,67.05
2019-05-23T06:37:04.197Z,65.23
2019-05-23T06:38:04.189Z,67.05
2019-05-23T06:39:04.216Z,69.71
2019-05-23T06:40:04.222Z,65.33
2019-05-23T06:41:04.176Z,64.48
2019-05-23T06:42:04.149Z,65.99
2019-05-23T06:43:04.137Z,67.97
2019-05-23T06:44:04.140Z,66.33
2019-05-23T06:45:04.147Z,68.35
2019-05-23T06:46:04.114Z,66.94
2019-05-23T06:47:04.084Z,69.20
2019-05-23T06:48:04.074Z,68.04
2019-05-23T06:49:04.071Z,68.27
2019-05-23T06:50:04.098Z,65.30
2019-05-23T06:51:04.160Z,66.50
2019-05-23T06:52:04.035Z,66.09
2019-05-23T06:53:04.027Z,68.76
2019-05-23T06:54:04.007Z,67.32
2019-05-23T06:55:03.996Z,67.32
2019-05-23T06:56:04.004Z,65.10
2019-05-23T06:57:04.012Z,64.14
2019-05-23T06:58:03.972Z,67.36
2019-05-23T06:59:03.949Z,65.62
2019-05-23T07:00:03.942Z,66.64
2019-05-23T07:01:04.015Z,67.26
2019-05-23T07:02:03.921Z,64.90
2019-05-23T07:03:03.942Z,65.45
2019-05-23T07:04:03.890Z,66.88
2019-05-23T07:05:03.887Z,65.21
2019-05-23T07:06:03.881Z,65.21
2019-05-23T07:07:03.882Z,64.22
2019-05-23T07:08:03.860Z,64.39
2019-05-23T07:09:03.880Z,64.67
2019-05-23T07:10:03.828Z,65.11
2019-05-23T07:11:03.877Z,67.74
2019-05-23T07:12:03.832Z,65.49
2019-05-23T07:13:03.798Z,65.18
2019-05-23T07:14:03.830Z,64.98
2019-05-23T07:15:03.801Z,64.43
2019-05-23T07:16:03.777Z,64.43
2019-05-23T07:17:03.747Z,62.83
2019-05-23T07:18:03.744Z,62.42
2019-05-23T07:19:03.769Z,65.90
2019-05-23T07:20:03.790Z,62.83
2019-05-23T07:21:03.922Z,64.26
2019-05-23T07:22:03.708Z,64.20
2019-05-23T07:23:03.686Z,64.48
2019-05-23T07:24:03.677Z,62.98
2019-05-23T07:25:03.669Z,64.00
2019-05-23T07:26:03.656Z,63.69
2019-05-23T07:27:03.732Z,61.85
2019-05-23T07:28:03.666Z,61.44
2019-05-23T07:29:03.625Z,60.80
2019-05-23T07:30:03.614Z,61.92
2019-05-23T07:31:03.605Z,61.34
2019-05-23T07:32:03.585Z,61.65
2019-05-23T07:33:03.625Z,61.82
2019-05-23T07:34:03.605Z,60.60
2019-05-23T07:35:03.563Z,62.33
2019-05-23T07:36:03.630Z,62.33
2019-05-23T07:37:03.534Z,63.66
2019-05-23T07:38:03.523Z,60.93
2019-05-23T07:39:03.514Z,61.82
2019-05-23T07:40:03.546Z,62.02
2019-05-23T07:41:03.493Z,61.92
2019-05-23T07:42:03.607Z,61.18
2019-05-23T07:43:03.474Z,60.13
2019-05-23T07:44:03.486Z,61.46
2019-05-23T07:45:03.468Z,59.85
2019-05-23T07:46:03.548Z,61.25
2019-05-23T07:47:03.443Z,61.94
2019-05-23T07:48:03.432Z,60.33
2019-05-23T07:49:03.438Z,63.06
2019-05-23T07:50:03.399Z,60.71
2019-05-23T07:51:03.393Z,61.09
2019-05-23T07:52:03.412Z,62.04
2019-05-23T07:53:03.374Z,62.45
2019-05-23T07:54:03.341Z,59.11
2019-05-23T07:55:03.342Z,60.41
2019-05-23T07:56:03.378Z,60.28
2019-05-23T07:57:03.321Z,61.30
2019-05-23T07:58:03.414Z,63.47
2019-05-23T07:59:03.301Z,60.33
2019-05-23T08:00:03.289Z,60.23
2019-05-23T08:01:03.335Z,59.52
2019-05-23T08:02:03.299Z,60.05
2019-05-23T08:03:03.304Z,60.36
2019-05-23T08:04:19.750Z,61.35
2019-05-23T08:05:04.229Z,62.17
2019-05-23T08:06:03.230Z,59.46
2019-05-23T08:07:03.250Z,60.30
2019-05-23T08:08:03.360Z,59.39
2019-05-23T08:09:03.189Z,58.37
2019-05-23T08:10:03.187Z,60.38
2019-05-23T08:11:03.220Z,60.86
2019-05-23T08:12:03.156Z,57.70
2019-05-23T08:13:03.320Z,57.52
2019-05-23T08:14:03.194Z,59.56
2019-05-23T08:15:03.131Z,58.95
2019-05-23T08:16:03.130Z,61.60
2019-05-23T08:17:03.137Z,58.85
2019-05-23T08:18:03.098Z,58.23
2019-05-23T08:19:03.078Z,58.44
2019-05-23T08:20:03.068Z,58.85
2019-05-23T08:21:03.057Z,61.68
2019-05-23T08:22:03.046Z,57.78
2019-05-23T08:23:03.094Z,57.19
2019-05-23T08:24:03.025Z,57.19
2019-05-23T08:25:03.028Z,58.82
2019-05-23T08:26:03.058Z,59.10
2019-05-23T08:27:02.996Z,58.87
2019-05-23T08:28:02.991Z,57.78
2019-05-23T08:29:24.832Z,58.18
2019-05-23T08:30:03.968Z,57.14
2019-05-23T08:31:02.952Z,56.93
2019-05-23T08:32:02.942Z,56.24
2019-05-23T08:33:02.978Z,58.49
2019-05-23T08:34:02.994Z,54.59
2019-05-23T08:35:02.917Z,57.37
2019-05-23T08:36:02.935Z,59.28
2019-05-23T08:37:02.907Z,59.14
2019-05-23T08:38:02.882Z,57.29
2019-05-23T08:39:02.868Z,58.51
2019-05-23T08:40:02.853Z,56.75
2019-05-23T08:41:02.880Z,57.08
2019-05-23T08:42:02.919Z,55.89
2019-05-23T08:43:02.830Z,56.70
2019-05-23T08:44:02.813Z,57.29
2019-05-23T08:45:02.842Z,57.26
2019-05-23T08:46:02.979Z,54.94
2019-05-23T08:47:02.788Z,54.94
2019-05-23T08:48:02.812Z,54.21
2019-05-23T08:49:02.760Z,54.85
2019-05-23T08:50:02.772Z,58.17
2019-05-23T08:51:02.811Z,54.90
2019-05-23T08:52:02.728Z,52.78
2019-05-23T08:53:02.713Z,54.61
2019-05-23T08:54:02.740Z,52.81
2019-05-23T08:55:02.702Z,53.83
2019-05-23T08:56:02.866Z,55.66
2019-05-23T08:57:02.730Z,52.00
2019-05-23T08:58:02.665Z,53.14
2019-05-23T08:59:02.891Z,54.64
2019-05-23T09:00:02.643Z,54.31
2019-05-23T09:01:02.629Z,54.61
2019-05-23T09:02:02.650Z,51.44
2019-05-23T09:03:02.623Z,53.47
2019-05-23T09:04:02.594Z,52.20
2019-05-23T09:05:06.056Z,54.59
2019-05-23T09:06:02.568Z,51.87
2019-05-23T09:07:02.818Z,48.14
2019-05-23T09:08:02.589Z,51.90
2019-05-23T09:09:02.557Z,50.60
2019-05-23T09:10:02.531Z,53.85
2019-05-23T09:11:02.509Z,51.64
2019-05-23T09:12:02.503Z,52.58
2019-05-23T09:13:02.514Z,54.05
2019-05-23T09:14:02.519Z,53.55
2019-05-23T09:15:02.475Z,53.96
2019-05-23T09:16:02.593Z,53.75
2019-05-23T09:17:02.446Z,51.21
2019-05-23T09:18:02.437Z,54.87
2019-05-23T09:19:02.478Z,54.13
2019-05-23T09:20:02.525Z,53.14
2019-05-23T09:21:02.425Z,51.79
2019-05-23T09:22:02.396Z,52.51
2019-05-23T09:23:02.388Z,51.70
2019-05-23T09:24:02.367Z,48.77
2019-05-23T09:25:02.408Z,49.30
2019-05-23T09:26:02.345Z,52.33
2019-05-23T09:27:02.338Z,48.95
2019-05-23T09:28:02.339Z,49.69
2019-05-23T09:29:02.324Z,47.43
2019-05-23T09:30:02.326Z,48.85
2019-05-23T09:31:02.335Z,50.17
2019-05-23T09:32:02.323Z,48.11
2019-05-23T09:33:02.294Z,49.13
2019-05-23T09:34:02.266Z,48.71
2019-05-23T09:35:19.146Z,44.97
2019-05-23T09:36:03.269Z,49.52
2019-05-23T09:37:02.235Z,46.35
2019-05-23T09:38:02.282Z,50.00
2019-05-23T09:39:02.382Z,49.31
2019-05-23T09:40:02.201Z,47.26
2019-05-23T09:41:02.258Z,50.86
2019-05-23T09:42:02.215Z,45.87
2019-05-23T09:43:02.244Z,44.82
2019-05-23T09:44:02.185Z,47.77
2019-05-23T09:45:02.251Z,42.31
2019-05-23T09:46:02.142Z,47.46
2019-05-23T09:47:02.203Z,43.02
2019-05-23T09:48:02.142Z,48.68
2019-05-23T09:49:02.110Z,45.31
2019-05-23T09:50:02.125Z,45.46
2019-05-23T09:51:02.089Z,45.56
2019-05-23T09:52:02.112Z,47.49
2019-05-23T09:53:02.051Z,48.18
2019-05-23T09:54:02.043Z,45.84
2019-05-23T09:55:02.049Z,45.94
2019-05-23T09:56:02.143Z,43.43
2019-05-23T09:57:02.039Z,46.67
2019-05-23T09:58:02.048Z,49.49
2019-05-23T09:59:02.000Z,44.13
2019-05-23T10:00:02.341Z,45.15
2019-05-23T10:01:01.972Z,49.21
2019-05-23T10:02:02.006Z,46.04
2019-05-23T10:03:01.991Z,45.84
2019-05-23T10:04:01.984Z,45.72
2019-05-23T10:05:02.062Z,47.11
2019-05-23T10:06:01.956Z,46.12
2019-05-23T10:07:01.910Z,46.83
2019-05-23T10:08:01.900Z,47.24
2019-05-23T10:09:01.890Z,48.13
2019-05-23T10:10:01.925Z,45.92
2019-05-23T10:11:01.891Z,47.92
2019-05-23T10:12:01.922Z,48.82
2019-05-23T10:13:01.846Z,45.57
2019-05-23T10:14:01.839Z,49.04
2019-05-23T10:15:01.838Z,45.50
2019-05-23T10:16:01.890Z,48.79
2019-05-23T10:17:01.801Z,47.88
2019-05-23T10:18:01.792Z,48.36
2019-05-23T10:19:01.780Z,48.44
2019-05-23T10:20:01.797Z,42.68
2019-05-23T10:21:01.784Z,48.44
2019-05-23T10:22:01.779Z,49.45
2019-05-23T10:23:01.734Z,45.94
2019-05-23T10:24:01.719Z,47.23
2019-05-23T10:25:01.732Z,46.40
2019-05-23T10:26:01.709Z,46.40
2019-05-23T10:27:01.687Z,48.85
2019-05-23T10:28:01.718Z,47.31
2019-05-23T10:29:01.670Z,48.62
2019-05-23T10:30:01.659Z,45.79
2019-05-23T10:31:01.726Z,45.51
2019-05-23T10:32:01.659Z,46.36
2019-05-23T10:33:01.617Z,48.34
2019-05-23T10:34:01.656Z,49.30
2019-05-23T10:35:01.639Z,45.41
2019-05-23T10:36:01.587Z,48.42
2019-05-23T10:37:01.577Z,48.52
2019-05-23T10:38:01.610Z,49.61
2019-05-23T10:39:01.547Z,47.77
2019-05-23T10:40:01.573Z,44.46
2019-05-23T10:41:01.545Z,47.39
2019-05-23T10:42:01.525Z,47.87
2019-05-23T10:43:01.517Z,49.05
2019-05-23T10:44:01.534Z,44.46
2019-05-23T10:45:01.517Z,48.32
2019-05-23T10:46:01.478Z,50.34
2019-05-23T10:47:01.467Z,50.12
2019-05-23T10:48:01.502Z,48.32
2019-05-23T10:49:01.454Z,48.62
2019-05-23T10:50:07.175Z,45.25
2019-05-23T10:51:02.424Z,49.48
2019-05-23T10:52:01.457Z,47.53
2019-05-23T10:53:01.409Z,45.10
2019-05-23T10:54:01.430Z,46.44
2019-05-23T10:55:01.400Z,48.93
2019-05-23T10:56:01.394Z,49.79
2019-05-23T10:57:01.357Z,45.25
2019-05-23T10:58:01.355Z,44.86
2019-05-23T10:59:01.341Z,47.67
2019-05-23T11:00:01.383Z,47.56
2019-05-23T11:01:01.326Z,47.34
2019-05-23T11:02:01.303Z,46.76
2019-05-23T11:03:01.297Z,42.74
2019-05-23T11:04:01.286Z,51.30
2019-05-23T11:05:12.182Z,47.44
2019-05-23T11:06:14.772Z,45.40
2019-05-23T11:07:02.254Z,45.00
2019-05-23T11:08:01.245Z,44.98
2019-05-23T11:09:01.301Z,43.30
2019-05-23T11:10:01.237Z,47.04
2019-05-23T11:11:01.247Z,43.69
2019-05-23T11:12:01.242Z,45.32
2019-05-23T11:13:01.184Z,45.12
2019-05-23T11:14:01.310Z,47.44
2019-05-23T11:15:01.183Z,46.51
2019-05-23T11:16:01.177Z,45.07
2019-05-23T11:17:01.173Z,42.92
2019-05-23T11:18:01.188Z,44.56
2019-05-23T11:19:01.124Z,43.73
2019-05-23T11:20:01.133Z,46.23
2019-05-23T11:21:01.135Z,43.38
2019-05-23T11:22:01.148Z,44.70
2019-05-23T11:23:03.568Z,43.89
2019-05-23T11:24:01.074Z,43.28
2019-05-23T11:25:01.072Z,43.93
2019-05-23T11:26:02.405Z,49.33
2019-05-23T11:27:01.031Z,44.79
2019-05-23T11:28:01.031Z,45.70
2019-05-23T11:29:01.023Z,41.18
2019-05-23T11:30:01.018Z,44.19
2019-05-23T11:31:01.008Z,43.38
2019-05-23T11:32:01.053Z,44.47
2019-05-23T11:33:00.990Z,42.58
2019-05-23T11:34:00.964Z,42.90
2019-05-23T11:35:00.941Z,46.21
2019-05-23T11:36:00.944Z,41.75
2019-05-23T11:37:00.964Z,40.46
2019-05-23T11:38:00.916Z,41.08
2019-05-23T11:39:00.941Z,41.06
2019-05-23T11:40:00.899Z,40.17
2019-05-23T11:41:00.891Z,42.11
2019-05-23T11:42:00.915Z,42.70
2019-05-23T11:43:00.875Z,42.15
2019-05-23T11:44:00.850Z,41.45
2019-05-23T11:45:00.841Z,46.17
2019-05-23T11:46:00.831Z,43.95
2019-05-23T11:47:00.860Z,41.97
2019-05-23T11:48:00.826Z,44.57
2019-05-23T11:49:00.802Z,44.35
2019-05-23T11:50:00.829Z,44.65
2019-05-23T11:51:00.791Z,41.05
2019-05-23T11:52:00.771Z,40.28
2019-05-23T11:53:00.763Z,42.84
2019-05-23T11:54:07.567Z,40.37
2019-05-23T11:55:01.741Z,44.79
2019-05-23T11:56:00.824Z,44.95
2019-05-23T11:57:00.720Z,42.24
2019-05-23T11:58:00.710Z,41.83
2019-05-23T11:59:01.766Z,41.35
2019-05-23T12:00:00.720Z,42.98
2019-05-23T12:01:00.938Z,41.49
2019-05-23T12:02:00.658Z,42.09
2019-05-23T12:03:00.650Z,43.80
2019-05-23T12:04:00.639Z,42.68
2019-05-23T12:05:00.646Z,43.65
2019-05-23T12:06:05.286Z,45.94
2019-05-23T12:07:01.639Z,40.32
2019-05-23T12:08:00.611Z,43.57
2019-05-23T12:09:00.632Z,45.06
2019-05-23T12:10:00.581Z,40.34
2019-05-23T12:11:00.569Z,43.46
2019-05-23T12:12:00.549Z,43.52
2019-05-23T12:13:00.610Z,40.03
2019-05-23T12:14:00.531Z,40.22
2019-05-23T12:15:00.521Z,43.82
2019-05-23T12:16:00.508Z,42.41
2019-05-23T12:17:00.498Z,40.03
2019-05-23T12:18:00.508Z,41.87
2019-05-23T12:19:00.518Z,42.35
2019-05-23T12:20:00.468Z,41.06
2019-05-23T12:21:00.461Z,43.57
2019-05-23T12:22:00.486Z,42.07
2019-05-23T12:23:00.502Z,41.47
2019-05-23T12:24:00.453Z,40.28
2019-05-23T12:25:18.201Z,40.39
2019-05-23T12:26:01.397Z,39.48
2019-05-23T12:27:00.393Z,42.98
2019-05-23T12:28:00.382Z,41.83
2019-05-23T12:29:00.419Z,40.05
2019-05-23T12:30:00.381Z,42.27
2019-05-23T12:31:00.346Z,42.96
2019-05-23T12:32:00.381Z,40.44
2019-05-23T12:33:00.355Z,42.24
2019-05-23T12:34:00.320Z,41.91
2019-05-23T12:35:10.185Z,41.99
2019-05-23T12:36:01.286Z,41.17
2019-05-23T12:37:18.499Z,42.30
2019-05-23T12:38:02.568Z,41.15
2019-05-23T12:39:00.258Z,38.67
2019-05-23T12:40:00.292Z,40.50
2019-05-23T12:41:00.373Z,41.49
2019-05-23T12:42:00.225Z,42.18
2019-05-23T12:43:00.246Z,41.65
2019-05-23T12:44:00.213Z,40.75
2019-05-23T12:45:00.196Z,37.76
2019-05-23T12:46:00.204Z,36.47
2019-05-23T12:47:00.245Z,35.99
2019-05-23T12:48:00.182Z,42.03
2019-05-23T12:49:00.155Z,40.82
2019-05-23T12:50:00.144Z,40.72
2019-05-23T12:51:00.145Z,42.84
2019-05-23T12:52:00.125Z,41.29